createdAt,value
2022-10-22T00:00:36.716Z,32.13
2022-10-22T00:03:23.471Z,30.50
2022-10-22T00:05:50.437Z,32.50
2022-10-22T00:08:17.188Z,32.67
2022-10-22T00:10:44.239Z,32.40
2022-10-22T00:13:11.676Z,33.43
2022-10-22T00:15:38.805Z,30.97
2022-10-22T00:18:05.772Z,30.83
2022-10-22T00:20:32.663Z,31.10
2022-10-22T00:22:59.407Z,28.70
2022-10-22T00:25:26.345Z,31.63
2022-10-22T00:27:53.185Z,31.63
2022-10-22T00:30:20.255Z,29.93
2022-10-22T00:32:47.117Z,34.23
2022-10-22T00:35:14.002Z,33.60
2022-10-22T00:37:40.836Z,33.67
2022-10-22T00:40:08.590Z,33.10
2022-10-22T00:42:35.516Z,32.87
2022-10-22T00:45:10.638Z,30.93
2022-10-22T00:47:41.288Z,30.40
2022-10-22T00:50:17.483Z,30.10
2022-10-22T00:52:44.549Z,31.27
2022-10-22T00:55:12.393Z,28.80
2022-10-22T00:57:39.495Z,30.70
2022-10-22T01:00:07.322Z,28.63
2022-10-22T01:02:34.320Z,27.27
2022-10-22T01:05:01.536Z,30.17
2022-10-22T01:07:28.629Z,27.90
2022-10-22T01:10:12.171Z,29.17
2022-10-22T01:13:05.010Z,29.17
2022-10-22T01:15:54.784Z,29.13
2022-10-22T01:18:27.738Z,28.30
2022-10-22T01:21:15.234Z,30.60
2022-10-22T01:24:11.960Z,29.77
2022-10-22T01:27:02.820Z,28.57
2022-10-22T01:29:36.141Z,30.77
2022-10-22T01:32:10.948Z,30.73
2022-10-22T01:34:41.267Z,29.93
2022-10-22T01:37:10.655Z,33.33
2022-10-22T01:39:40.276Z,30.40
2022-10-22T01:42:07.199Z,30.47
2022-10-22T01:44:37.272Z,28.70
2022-10-22T01:47:19.878Z,31.13
2022-10-22T01:50:22.367Z,29.30
2022-10-22T01:53:08.078Z,27.63
2022-10-22T01:55:48.286Z,28.13
2022-10-22T01:58:33.848Z,29.90
2022-10-22T02:01:13.116Z,28.80
2022-10-22T02:03:58.749Z,29.13
2022-10-22T02:06:27.588Z,28.03
2022-10-22T02:08:55.759Z,28.90
2022-10-22T02:11:22.699Z,28.43
2022-10-22T02:13:55.326Z,27.73
2022-10-22T02:16:29.233Z,29.03
2022-10-22T02:18:59.701Z,27.80
2022-10-22T02:21:27.380Z,28.20
2022-10-22T02:23:54.741Z,29.23
2022-10-22T02:26:28.635Z,28.80
2022-10-22T02:29:03.632Z,28.43
2022-10-22T02:31:34.176Z,30.77
2022-10-22T02:34:08.796Z,29.27
2022-10-22T02:36:38.671Z,26.50
2022-10-22T02:39:07.917Z,26.80
2022-10-22T02:41:35.354Z,26.73
2022-10-22T02:44:03.085Z,26.97
2022-10-22T02:46:29.945Z,26.97
2022-10-22T02:48:56.840Z,33.23
2022-10-22T02:51:23.734Z,32.97
2022-10-22T02:53:50.640Z,32.10
2022-10-22T02:56:17.963Z,32.67
2022-10-22T02:58:44.870Z,34.83
2022-10-22T03:01:15.252Z,32.53
2022-10-22T03:03:43.312Z,32.10
2022-10-22T03:06:10.107Z,31.57
2022-10-22T03:08:37.085Z,31.13
2022-10-22T03:11:04.313Z,30.97
2022-10-22T03:13:31.449Z,29.70
2022-10-22T03:15:58.343Z,31.97
2022-10-22T03:18:25.269Z,30.33
2022-10-22T03:21:20.418Z,30.93
2022-10-22T03:23:48.230Z,31.60
2022-10-22T03:26:15.396Z,29.20
2022-10-22T03:28:43.167Z,32.43
2022-10-22T03:31:09.920Z,30.67
2022-10-22T03:33:36.950Z,37.20
2022-10-22T03:36:03.931Z,37.40
2022-10-22T03:38:31.093Z,39.23
2022-10-22T03:40:58.298Z,34.60
2022-10-22T03:43:25.400Z,34.57
2022-10-22T03:45:52.085Z,31.70
2022-10-22T03:48:19.040Z,30.00
2022-10-22T03:50:45.784Z,32.67
2022-10-22T03:53:12.783Z,32.80
2022-10-22T03:55:41.589Z,29.90
2022-10-22T03:58:08.579Z,29.73
2022-10-22T04:00:36.648Z,30.80
2022-10-22T04:03:04.346Z,29.77
2022-10-22T04:05:33.753Z,28.67
2022-10-22T04:08:00.895Z,31.73
2022-10-22T04:10:27.636Z,28.40
2022-10-22T04:12:54.611Z,28.27
2022-10-22T04:15:21.462Z,26.80
2022-10-22T04:17:48.441Z,28.60
2022-10-22T04:20:15.306Z,29.57
2022-10-22T04:22:42.286Z,28.33
2022-10-22T04:25:09.463Z,28.03
2022-10-22T04:27:36.548Z,27.97
2022-10-22T04:30:06.525Z,27.37
2022-10-22T04:32:33.537Z,27.37
2022-10-22T04:35:00.272Z,30.63
2022-10-22T04:37:27.260Z,30.90
2022-10-22T04:39:53.976Z,31.13
2022-10-22T04:42:20.906Z,32.90
2022-10-22T04:44:47.715Z,32.70
2022-10-22T04:47:14.640Z,31.47
2022-10-22T04:49:41.467Z,33.07
2022-10-22T04:52:08.389Z,31.70
2022-10-22T04:54:35.169Z,31.43
2022-10-22T04:57:02.129Z,33.80
2022-10-22T04:59:29.137Z,34.57
2022-10-22T05:01:56.095Z,30.93
2022-10-22T05:04:22.921Z,32.30
2022-10-22T05:06:50.088Z,32.93
2022-10-22T05:09:19.434Z,32.83
2022-10-22T05:11:49.934Z,31.60
2022-10-22T05:14:19.875Z,29.60
2022-10-22T05:16:48.575Z,29.83
2022-10-22T05:19:20.024Z,31.10
2022-10-22T05:21:47.041Z,31.83
2022-10-22T05:24:14.034Z,30.20
2022-10-22T05:26:40.974Z,31.67
2022-10-22T05:29:07.886Z,30.10
2022-10-22T05:31:35.449Z,32.63
2022-10-22T05:34:02.390Z,31.97
2022-10-22T05:36:29.360Z,34.03
2022-10-22T05:38:57.187Z,32.23
2022-10-22T05:41:26.950Z,32.27
2022-10-22T05:43:58.900Z,35.43
2022-10-22T05:46:28.589Z,36.40
2022-10-22T05:48:57.897Z,35.40
2022-10-22T05:51:26.302Z,36.10
2022-10-22T05:53:58.593Z,37.83
2022-10-22T05:56:27.152Z,38.87
2022-10-22T05:58:54.899Z,38.80
2022-10-22T06:01:24.780Z,37.37
2022-10-22T06:04:00.131Z,39.03
2022-10-22T06:06:38.074Z,39.40
2022-10-22T06:09:11.220Z,39.00
2022-10-22T06:11:38.390Z,42.33
2022-10-22T06:14:05.325Z,40.43
2022-10-22T06:16:32.615Z,39.20
2022-10-22T06:19:03.449Z,40.17
2022-10-22T06:21:31.575Z,39.03
2022-10-22T06:24:00.429Z,39.37
2022-10-22T06:26:27.718Z,39.10
2022-10-22T06:28:56.045Z,36.67
2022-10-22T06:31:24.148Z,39.33
2022-10-22T06:33:50.871Z,39.27
2022-10-22T06:36:20.349Z,38.37
2022-10-22T06:38:47.104Z,39.90
2022-10-22T06:41:15.883Z,39.77
2022-10-22T06:43:47.085Z,39.07
2022-10-22T06:46:20.247Z,38.43
2022-10-22T06:48:52.271Z,40.27
2022-10-22T06:51:19.650Z,40.00
2022-10-22T06:53:46.901Z,42.20
2022-10-22T06:56:20.209Z,42.23
2022-10-22T06:58:51.732Z,40.97
2022-10-22T07:01:21.921Z,42.50
2022-10-22T07:03:51.034Z,43.67
2022-10-22T07:06:19.510Z,43.17
2022-10-22T07:08:46.487Z,42.37
2022-10-22T07:11:14.533Z,42.07
2022-10-22T07:13:41.953Z,42.10
2022-10-22T07:16:10.047Z,42.87
2022-10-22T07:18:38.301Z,40.67
2022-10-22T07:21:07.165Z,40.87
2022-10-22T07:23:34.165Z,39.87
2022-10-22T07:26:04.503Z,42.43
2022-10-22T07:28:32.576Z,42.30
2022-10-22T07:31:00.403Z,38.83
2022-10-22T07:33:27.324Z,41.63
2022-10-22T07:35:59.879Z,41.17
2022-10-22T07:38:27.229Z,36.03
2022-10-22T07:40:54.360Z,36.47
2022-10-22T07:43:21.364Z,35.80
2022-10-22T07:45:48.329Z,35.77
2022-10-22T07:48:15.348Z,35.80
2022-10-22T07:53:14.053Z,35.33
2022-10-22T07:55:41.253Z,34.93
2022-10-22T07:58:08.085Z,35.53
2022-10-22T08:00:35.015Z,34.40
2022-10-22T08:03:01.753Z,32.60
2022-10-22T08:05:28.674Z,33.72
2022-10-22T08:07:55.426Z,31.97
2022-10-22T08:10:22.404Z,33.30
2022-10-22T08:12:49.247Z,32.27
2022-10-22T08:15:16.285Z,32.67
2022-10-22T08:17:43.415Z,32.97
2022-10-22T08:20:11.072Z,31.03
2022-10-22T08:22:37.995Z,31.27
2022-10-22T08:25:05.972Z,32.00
2022-10-22T08:27:32.697Z,27.63
2022-10-22T08:29:59.649Z,28.80
2022-10-22T08:34:54.355Z,27.67
2022-10-22T08:37:21.083Z,27.23
2022-10-22T08:39:48.462Z,27.00
2022-10-22T08:42:33.085Z,24.98
2022-10-22T08:45:14.639Z,26.30
2022-10-22T08:47:53.645Z,26.43
2022-10-22T08:50:29.623Z,27.15
2022-10-22T08:53:01.075Z,26.13
2022-10-22T08:55:28.593Z,25.42
2022-10-22T08:58:08.406Z,25.27
2022-10-22T09:00:40.508Z,25.53
2022-10-22T09:03:41.269Z,25.60
2022-10-22T09:06:14.130Z,23.52
2022-10-22T09:08:43.458Z,24.50
2022-10-22T09:11:13.578Z,23.03
2022-10-22T09:13:42.985Z,23.00
2022-10-22T09:16:36.576Z,21.67
2022-10-22T09:19:31.581Z,21.33
2022-10-22T09:22:21.032Z,19.90
2022-10-22T09:25:10.887Z,21.03
2022-10-22T09:27:38.004Z,20.60
2022-10-22T09:30:05.485Z,22.03
2022-10-22T09:32:33.344Z,19.90
2022-10-22T09:35:00.102Z,18.92
2022-10-22T09:37:30.262Z,18.00
2022-10-22T09:39:58.965Z,20.97
2022-10-22T09:42:26.400Z,19.10
2022-10-22T09:44:55.515Z,18.42
2022-10-22T09:47:42.814Z,19.95
2022-10-22T09:50:15.545Z,19.60
2022-10-22T09:52:42.870Z,19.70
2022-10-22T09:55:19.333Z,19.52
2022-10-22T09:57:54.203Z,20.10
2022-10-22T10:00:24.948Z,20.77
2022-10-22T10:02:58.154Z,21.53
2022-10-22T10:05:33.671Z,22.87
2022-10-22T10:08:13.166Z,23.20
2022-10-22T10:10:48.004Z,23.47
2022-10-22T10:13:22.245Z,22.40
2022-10-22T10:16:05.284Z,23.85
2022-10-22T10:18:56.429Z,23.83
2022-10-22T10:21:39.499Z,25.37
2022-10-22T10:24:27.743Z,25.33
2022-10-22T10:27:02.594Z,23.80
2022-10-22T10:29:47.671Z,25.77
2022-10-22T10:32:41.133Z,24.25
2022-10-22T10:35:24.042Z,25.30
2022-10-22T10:38:31.877Z,24.45
2022-10-22T10:41:18.071Z,25.70
2022-10-22T10:43:56.933Z,26.08
2022-10-22T10:46:43.843Z,28.50
2022-10-22T10:49:14.885Z,28.02
2022-10-22T10:51:53.208Z,28.50
2022-10-22T10:54:28.554Z,27.90
2022-10-22T10:57:07.890Z,28.37
2022-10-22T10:59:53.589Z,27.70
2022-10-22T11:02:52.161Z,26.92
2022-10-22T11:05:29.976Z,27.47
2022-10-22T11:08:20.573Z,29.33
2022-10-22T11:10:54.914Z,31.40
2022-10-22T11:13:37.074Z,29.27
2022-10-22T11:16:28.459Z,35.67
2022-10-22T11:19:06.040Z,33.33
2022-10-22T11:21:40.107Z,32.03
2022-10-22T11:24:34.329Z,30.02
2022-10-22T11:27:10.870Z,32.70
2022-10-22T11:29:42.869Z,30.88
2022-10-22T11:32:19.878Z,29.00
2022-10-22T11:34:51.256Z,30.98
2022-10-22T11:37:18.980Z,29.27
2022-10-22T11:39:55.494Z,28.63
2022-10-22T11:42:47.844Z,28.73
2022-10-22T11:45:14.724Z,28.80
2022-10-22T11:48:09.960Z,27.10
2022-10-22T11:50:56.637Z,26.60
2022-10-22T11:53:39.325Z,29.23
2022-10-22T11:56:06.457Z,29.23
2022-10-22T11:58:43.746Z,27.93
2022-10-22T12:01:10.745Z,30.40
2022-10-22T12:03:43.898Z,31.17
2022-10-22T12:06:15.651Z,29.90
2022-10-22T12:08:48.727Z,28.63
2022-10-22T12:11:23.461Z,29.67
2022-10-22T12:13:58.940Z,28.73
2022-10-22T12:16:37.849Z,29.83
2022-10-22T12:19:23.997Z,31.10
2022-10-22T12:22:19.628Z,28.73
2022-10-22T12:24:53.982Z,26.77
2022-10-22T12:27:22.992Z,27.63
2022-10-22T12:29:55.499Z,27.73
2022-10-22T12:32:23.770Z,25.88
2022-10-22T12:34:52.688Z,25.77
2022-10-22T12:37:20.177Z,27.83
2022-10-22T12:39:47.255Z,25.45
2022-10-22T12:42:17.140Z,22.97
2022-10-22T12:44:45.003Z,23.70
2022-10-22T12:47:16.976Z,23.58
2022-10-22T12:49:49.275Z,24.60
2022-10-22T12:52:21.294Z,21.90
2022-10-22T12:54:52.463Z,20.53
2022-10-22T12:57:20.944Z,20.33
2022-10-22T12:59:51.150Z,20.87
2022-10-22T13:02:24.625Z,19.20
2022-10-22T13:05:16.438Z,20.43
2022-10-22T13:07:48.317Z,18.57
2022-10-22T13:10:24.172Z,19.00
2022-10-22T13:12:56.334Z,19.20
2022-10-22T13:15:43.644Z,17.95
2022-10-22T13:18:22.324Z,16.63
2022-10-22T13:21:03.051Z,16.73
2022-10-22T13:23:33.703Z,16.40
2022-10-22T13:26:12.341Z,16.53
2022-10-22T13:28:40.313Z,14.18
2022-10-22T13:31:15.480Z,14.32
2022-10-22T13:33:45.594Z,13.80
2022-10-22T13:36:16.444Z,14.52
2022-10-22T13:38:44.506Z,15.35
2022-10-22T13:41:25.913Z,15.07
2022-10-22T13:43:53.778Z,13.55
2022-10-22T13:46:21.364Z,12.98
2022-10-22T13:48:50.909Z,13.50
2022-10-22T13:51:21.016Z,13.70
2022-10-22T13:53:49.732Z,12.13
2022-10-22T13:56:18.150Z,13.50
2022-10-22T13:58:46.518Z,12.97
2022-10-22T14:01:20.942Z,13.00
2022-10-22T14:03:50.508Z,12.30
2022-10-22T14:06:19.204Z,13.02
2022-10-22T14:08:48.495Z,13.63
2022-10-22T14:11:15.292Z,15.45
2022-10-22T14:13:42.429Z,14.32
2022-10-22T14:16:19.233Z,20.33
2022-10-22T14:18:47.391Z,22.92
2022-10-22T14:21:15.806Z,22.63
2022-10-22T14:23:45.061Z,20.00
2022-10-22T14:26:33.020Z,15.45
2022-10-22T14:29:09.371Z,11.93
2022-10-22T14:34:14.813Z,12.57
2022-10-22T14:36:43.752Z,13.90
2022-10-22T14:39:12.209Z,12.65
2022-10-22T14:41:39.554Z,12.88
2022-10-22T14:44:06.531Z,13.38
2022-10-22T14:46:33.777Z,15.15
2022-10-22T14:49:00.716Z,12.43
2022-10-22T14:51:27.489Z,12.48
2022-10-22T14:53:54.443Z,11.45
2022-10-22T14:56:21.494Z,10.23
2022-10-22T14:58:49.294Z,9.40
2022-10-22T15:01:16.506Z,8.40
2022-10-22T15:03:43.740Z,8.43
2022-10-22T15:06:10.534Z,8.43
2022-10-22T15:08:37.746Z,8.45
2022-10-22T15:11:10.959Z,7.43
2022-10-22T15:13:39.248Z,7.07
2022-10-22T15:16:08.327Z,7.18
2022-10-22T15:18:35.695Z,6.88
2022-10-22T15:21:05.804Z,7.33
2022-10-22T15:23:33.229Z,7.53
2022-10-22T15:25:59.951Z,7.50
2022-10-22T15:28:27.079Z,8.13
2022-10-22T15:30:58.597Z,9.32
2022-10-22T15:33:26.863Z,9.00
2022-10-22T15:35:54.362Z,8.50
2022-10-22T15:38:21.488Z,7.20
2022-10-22T15:40:48.356Z,6.30
2022-10-22T15:43:15.337Z,7.80
2022-10-22T15:45:42.110Z,8.73
2022-10-22T15:48:11.331Z,12.27
2022-10-22T15:50:39.418Z,9.32
2022-10-22T15:53:06.470Z,9.50
2022-10-22T15:55:33.732Z,7.97
2022-10-22T15:58:03.366Z,8.67
2022-10-22T16:00:32.158Z,8.87
2022-10-22T16:02:59.080Z,8.18
2022-10-22T16:05:27.407Z,8.35
2022-10-22T16:07:55.768Z,8.70
2022-10-22T16:10:22.808Z,9.33
2022-10-22T16:12:51.609Z,10.85
2022-10-22T16:15:18.413Z,9.23
2022-10-22T16:17:45.333Z,9.38
2022-10-22T16:22:40.098Z,10.13
2022-10-22T16:25:07.501Z,9.93
2022-10-22T16:27:34.464Z,10.52
2022-10-22T16:30:01.207Z,11.50
2022-10-22T16:32:28.157Z,13.75
2022-10-22T16:34:55.004Z,13.73
2022-10-22T16:37:21.984Z,12.27
2022-10-22T16:39:49.737Z,13.57
2022-10-22T16:42:16.689Z,14.23
2022-10-22T16:44:43.629Z,16.65
2022-10-22T16:47:10.516Z,19.50
2022-10-22T16:49:37.392Z,19.55
2022-10-22T16:52:04.600Z,18.03
2022-10-22T16:54:31.474Z,17.88
2022-10-22T16:56:58.414Z,20.48
2022-10-22T16:59:25.252Z,21.17
2022-10-22T17:01:52.337Z,22.77
2022-10-22T17:04:19.175Z,25.13
2022-10-22T17:06:46.205Z,20.33
2022-10-22T17:09:13.667Z,22.33
2022-10-22T17:11:42.612Z,25.33
2022-10-22T17:14:11.809Z,31.23
2022-10-22T17:16:38.711Z,33.53
2022-10-22T17:19:06.659Z,32.92
2022-10-22T17:21:34.154Z,32.55
2022-10-22T17:24:01.089Z,25.98
2022-10-22T17:26:28.593Z,26.35
2022-10-22T17:28:55.473Z,29.13
2022-10-22T17:31:23.596Z,35.17
2022-10-22T17:33:52.174Z,33.88
2022-10-22T17:36:21.260Z,31.75
2022-10-22T17:38:50.953Z,29.70
2022-10-22T17:41:21.129Z,34.93
2022-10-22T17:43:48.304Z,30.52
2022-10-22T17:46:26.929Z,30.90
2022-10-22T17:48:56.665Z,30.05
2022-10-22T17:51:25.457Z,29.45
2022-10-22T17:53:52.594Z,30.63
2022-10-22T17:56:22.796Z,36.00
2022-10-22T17:58:50.796Z,33.30
2022-10-22T18:01:25.111Z,31.03
2022-10-22T18:03:53.987Z,29.63
2022-10-22T18:06:21.612Z,30.37
2022-10-22T18:08:48.642Z,28.83
2022-10-22T18:11:21.707Z,29.57
2022-10-22T18:13:53.000Z,29.93
2022-10-22T18:16:20.224Z,27.37
2022-10-22T18:18:48.488Z,26.13
2022-10-22T18:21:16.932Z,27.70
2022-10-22T18:23:45.018Z,26.03
2022-10-22T18:26:12.795Z,26.33
2022-10-22T18:28:39.607Z,29.10
2022-10-22T18:31:13.597Z,28.00
2022-10-22T18:33:40.814Z,27.60
2022-10-22T18:36:10.544Z,27.63
2022-10-22T18:38:40.718Z,24.50
2022-10-22T18:41:13.121Z,25.40
2022-10-22T18:43:40.024Z,23.88
2022-10-22T18:46:07.889Z,23.13
2022-10-22T18:48:37.771Z,25.27
2022-10-22T18:51:07.833Z,23.45
2022-10-22T18:53:38.151Z,21.23
2022-10-22T18:56:06.986Z,23.90
2022-10-22T18:58:40.851Z,23.90
2022-10-22T19:01:13.798Z,25.15
2022-10-22T19:03:40.737Z,26.77
2022-10-22T19:06:08.278Z,24.57
2022-10-22T19:08:36.576Z,24.40
2022-10-22T19:11:10.260Z,27.27
2022-10-22T19:13:37.497Z,24.80
2022-10-22T19:16:07.473Z,25.47
2022-10-22T19:18:35.802Z,28.60
2022-10-22T19:21:02.962Z,31.53
2022-10-22T19:23:30.814Z,30.00
2022-10-22T19:26:02.168Z,31.43
2022-10-22T19:28:28.979Z,30.40
2022-10-22T19:30:56.243Z,28.53
2022-10-22T19:33:23.100Z,28.30
2022-10-22T19:35:50.072Z,33.00
2022-10-22T19:38:16.891Z,27.33
2022-10-22T19:40:43.860Z,26.42
2022-10-22T19:43:11.504Z,27.10
2022-10-22T19:45:42.397Z,26.10
2022-10-22T19:48:09.479Z,27.70
2022-10-22T19:50:36.844Z,28.37
2022-10-22T19:53:03.738Z,29.83
2022-10-22T19:55:30.722Z,28.77
2022-10-22T19:57:57.512Z,31.53
2022-10-22T20:00:24.586Z,33.17
2022-10-22T20:02:51.327Z,31.17
2022-10-22T20:05:18.439Z,29.27
2022-10-22T20:07:45.254Z,30.13
2022-10-22T20:10:12.459Z,34.80
2022-10-22T20:12:39.335Z,32.33
2022-10-22T20:15:06.909Z,31.07
2022-10-22T20:17:34.101Z,31.65
2022-10-22T20:20:01.113Z,30.33
2022-10-22T20:22:27.925Z,31.95
2022-10-22T20:24:54.992Z,30.73
2022-10-22T20:27:22.016Z,32.60
2022-10-22T20:29:49.004Z,31.48
2022-10-22T20:32:16.322Z,32.08
2022-10-22T20:34:43.273Z,31.15
2022-10-22T20:37:10.278Z,32.30
2022-10-22T20:39:37.280Z,34.40
2022-10-22T20:42:04.202Z,32.20
2022-10-22T20:44:31.194Z,32.63
2022-10-22T20:49:29.894Z,36.88
2022-10-22T20:51:56.689Z,34.30
2022-10-22T20:54:23.701Z,33.50
2022-10-22T20:56:50.636Z,33.70
2022-10-22T20:59:17.893Z,34.13
2022-10-22T21:01:50.500Z,30.92
2022-10-22T21:04:20.109Z,35.00
2022-10-22T21:06:48.687Z,32.65
2022-10-22T21:09:16.297Z,34.30
2022-10-22T21:11:43.717Z,30.65
2022-10-22T21:14:13.880Z,36.13
2022-10-22T21:16:45.931Z,31.45
2022-10-22T21:19:13.015Z,32.35
2022-10-22T21:21:40.010Z,34.22
2022-10-22T21:24:07.581Z,34.67
2022-10-22T21:26:42.144Z,34.47
2022-10-22T21:29:11.148Z,35.13
2022-10-22T21:31:39.333Z,33.38
2022-10-22T21:34:06.400Z,33.10
2022-10-22T21:36:33.422Z,34.07
2022-10-22T21:39:00.974Z,34.50
2022-10-22T21:41:27.872Z,32.60
2022-10-22T21:43:54.899Z,33.90
2022-10-22T21:46:24.203Z,34.42
2022-10-22T21:48:56.230Z,35.20
2022-10-22T21:51:24.338Z,33.03
2022-10-22T21:56:26.808Z,34.78
2022-10-22T21:58:54.574Z,35.27
2022-10-22T22:01:22.294Z,34.47
2022-10-22T22:03:50.827Z,35.05
2022-10-22T22:06:21.437Z,37.50
2022-10-22T22:08:51.189Z,37.92
2022-10-22T22:11:20.641Z,36.45
2022-10-22T22:13:48.792Z,39.58
2022-10-22T22:16:21.192Z,40.75
2022-10-22T22:18:50.930Z,42.15
2022-10-22T22:21:20.241Z,39.57
2022-10-22T22:23:49.154Z,41.00
2022-10-22T22:26:24.111Z,43.43
2022-10-22T22:28:54.141Z,38.30
2022-10-22T22:31:26.869Z,38.50
2022-10-22T22:34:05.890Z,37.88
2022-10-22T22:36:35.707Z,39.60
2022-10-22T22:39:04.590Z,34.45
2022-10-22T22:41:31.620Z,34.97
2022-10-22T22:43:58.737Z,32.08
2022-10-22T22:46:26.034Z,32.55
2022-10-22T22:48:53.071Z,31.98
2022-10-22T22:51:19.863Z,30.10
2022-10-22T22:53:46.964Z,32.07
2022-10-22T22:56:17.306Z,32.20
2022-10-22T22:58:44.491Z,31.97
2022-10-22T23:01:26.446Z,33.77
2022-10-22T23:03:56.621Z,32.00
2022-10-22T23:06:25.599Z,33.80
2022-10-22T23:08:53.406Z,33.23
2022-10-22T23:11:22.468Z,31.73
2022-10-22T23:13:53.402Z,32.77
2022-10-22T23:16:22.006Z,31.37
2022-10-22T23:18:49.716Z,30.57
2022-10-22T23:21:21.935Z,29.43
2022-10-22T23:23:51.768Z,30.10
2022-10-22T23:26:24.212Z,28.92
2022-10-22T23:28:51.767Z,29.57
2022-10-22T23:31:20.062Z,25.87
2022-10-22T23:33:47.612Z,25.93
2022-10-22T23:36:14.430Z,29.37
2022-10-22T23:38:43.355Z,27.27
2022-10-22T23:41:10.612Z,27.73
2022-10-22T23:43:38.826Z,29.10
2022-10-22T23:46:07.504Z,26.40
2022-10-22T23:48:35.185Z,26.23
2022-10-22T23:51:13.194Z,26.33
2022-10-22T23:53:41.313Z,26.47
2022-10-22T23:56:14.376Z,25.80
2022-10-22T23:58:41.886Z,26.40
